Time;durP1;ratioP1;P1;durP2;ratioP2;P2;SDS_P1;SDS_P2;PMS_P1;PMS_P2;Temp;Humidity;BMP_temperature;BMP_pressure;BME280_temperature;BME280_humidity;BME280_pressure;Samples;Min_cycle;Max_cycle;Signal;HPM_P1;HPM_P2
2023/10/20 00:00:34;;;;;;;29.50;25.30;;;;;;;7.42;100.00;99115.36;88423;281;136876;-72
2023/10/20 00:02:35;;;;;;;28.10;25.20;;;;;;;7.44;100.00;99114.59;88329;284;25195;-73
2023/10/20 00:04:37;;;;;;;29.40;23.80;;;;;;;7.45;100.00;99114.92;88365;283;139951;-68
2023/10/20 00:06:40;;;;;;;27.50;24.60;;;;;;;7.47;100.00;99114.40;88397;276;22539;-70
2023/10/20 00:08:42;;;;;;;25.80;23.00;;;;;;;7.48;100.00;99113.64;88438;281;138616;-67
2023/10/20 00:10:44;;;;;;;33.40;26.40;;;;;;;7.52;100.00;99110.02;88418;279;25184;-69
2023/10/20 00:12:46;;;;;;;28.60;24.00;;;;;;;7.54;100.00;99107.62;88341;277;137233;-68
2023/10/20 00:14:47;;;;;;;27.10;24.30;;;;;;;7.55;100.00;99107.14;88421;283;22540;-70
2023/10/20 00:16:49;;;;;;;32.70;24.60;;;;;;;7.57;100.00;99105.96;88324;276;137177;-68
2023/10/20 00:18:51;;;;;;;25.70;23.20;;;;;;;7.59;100.00;99111.14;88393;276;24030;-67
2023/10/20 00:20:53;;;;;;;30.70;24.20;;;;;;;7.62;100.00;99107.81;88280;276;138374;-66
2023/10/20 00:22:55;;;;;;;25.40;22.30;;;;;;;7.63;100.00;99105.24;88632;273;24176;-67
2023/10/20 00:24:58;;;;;;;27.40;22.30;;;;;;;7.63;100.00;99101.69;88570;275;137486;-69
2023/10/20 00:27:00;;;;;;;27.40;24.10;;;;;;;7.63;100.00;99101.52;88502;275;22539;-67
2023/10/20 00:29:02;;;;;;;32.30;24.60;;;;;;;7.64;100.00;99102.79;88424;279;137093;-67
2023/10/20 00:31:04;;;;;;;27.30;24.10;;;;;;;7.67;100.00;99098.23;88452;282;25261;-69
2023/10/20 00:33:06;;;;;;;31.60;25.10;;;;;;;7.70;100.00;99099.39;88246;275;138572;-63
2023/10/20 00:35:10;;;;;;;32.40;26.00;;;;;;;7.72;100.00;99098.55;88719;282;25223;-65
2023/10/20 00:37:12;;;;;;;27.70;23.70;;;;;;;7.75;100.00;99097.95;88312;283;136684;-64
2023/10/20 00:39:14;;;;;;;27.10;23.80;;;;;;;7.80;100.00;99091.65;88287;283;22541;-66
2023/10/20 00:41:16;;;;;;;28.00;25.00;;;;;;;7.83;100.00;99092.15;88360;276;137243;-66
2023/10/20 00:43:18;;;;;;;27.80;24.30;;;;;;;7.85;100.00;99091.91;88376;276;22534;-71
2023/10/20 00:45:20;;;;;;;26.10;23.30;;;;;;;7.87;100.00;99086.20;88237;283;137243;-71
2023/10/20 00:47:22;;;;;;;26.10;23.10;;;;;;;7.88;100.00;99081.55;88540;275;22549;-73
2023/10/20 00:49:24;;;;;;;30.50;24.10;;;;;;;7.89;100.00;99083.64;88504;282;137520;-73
2023/10/20 00:51:26;;;;;;;27.20;23.50;;;;;;;7.89;100.00;99082.66;88850;279;22566;-68
2023/10/20 00:53:29;;;;;;;25.90;23.00;;;;;;;7.91;100.00;99078.61;88717;279;137000;-67
2023/10/20 00:55:31;;;;;;;27.30;23.60;;;;;;;7.89;100.00;99076.17;88375;276;23748;-71
2023/10/20 00:57:34;;;;;;;28.40;23.20;;;;;;;7.85;100.00;99074.36;88417;278;137015;-69
2023/10/20 00:59:36;;;;;;;28.90;24.60;;;;;;;7.83;100.00;99067.63;88524;281;22540;-68
2023/10/20 01:01:38;;;;;;;29.00;23.60;;;;;;;7.82;100.00;99065.63;88661;282;138250;-69
2023/10/20 01:03:41;;;;;;;28.90;24.30;;;;;;;7.82;100.00;99063.88;88416;275;25631;-70
2023/10/20 01:05:44;;;;;;;28.30;24.50;;;;;;;7.84;100.00;99064.69;88625;276;138468;-69
2023/10/20 01:07:46;;;;;;;26.00;23.00;;;;;;;7.85;100.00;99060.81;88411;285;24350;-68
2023/10/20 01:09:48;;;;;;;28.70;25.50;;;;;;;7.85;100.00;99063.23;88303;282;137339;-69
2023/10/20 01:11:50;;;;;;;29.40;24.20;;;;;;;7.86;100.00;99058.57;88480;276;22533;-67
2023/10/20 01:13:52;;;;;;;27.80;24.80;;;;;;;7.87;100.00;99060.32;88469;278;137203;-70
2023/10/20 01:15:53;;;;;;;26.70;23.80;;;;;;;7.87;100.00;99055.39;88500;282;23808;-64
2023/10/20 01:17:56;;;;;;;31.40;25.30;;;;;;;7.87;100.00;99056.04;88512;282;137167;-70
2023/10/20 01:20:09;;;;;;;27.80;23.50;;;;;;;7.85;100.00;99055.91;88634;282;22530;-69
2023/10/20 01:22:10;;;;;;;25.70;23.00;;;;;;;7.85;100.00;99056.20;88669;277;24077;-68
2023/10/20 01:24:12;;;;;;;24.70;22.30;;;;;;;7.77;100.00;99038.80;88531;274;137564;-68
2023/10/20 01:26:14;;;;;;;27.90;24.40;;;;;;;7.84;100.00;99051.55;88584;282;25124;-68
2023/10/20 01:28:19;;;;;;;36.80;25.20;;;;;;;7.79;100.00;99048.52;88420;275;137374;-70
2023/10/20 01:30:21;;;;;;;27.70;24.70;;;;;;;7.73;100.00;99050.10;88599;282;23875;-63
2023/10/20 01:32:23;;;;;;;26.50;23.70;;;;;;;7.71;100.00;99043.94;88822;282;137341;-65
2023/10/20 01:34:26;;;;;;;25.90;23.10;;;;;;;7.71;100.00;99044.44;88836;278;22621;-68
2023/10/20 01:36:28;;;;;;;30.70;25.90;;;;;;;7.73;100.00;99043.29;88211;275;139035;-70
2023/10/20 01:38:29;;;;;;;29.20;24.40;;;;;;;7.74;100.00;99047.16;88554;280;22618;-69
2023/10/20 01:40:32;;;;;;;27.60;24.10;;;;;;;7.76;100.00;99046.88;88545;274;137225;-67
2023/10/20 01:42:33;;;;;;;31.30;27.10;;;;;;;7.77;100.00;99046.77;88350;283;25084;-69
2023/10/20 01:44:36;;;;;;;31.20;25.90;;;;;;;7.77;100.00;99042.56;88351;278;139882;-70
2023/10/20 01:46:39;;;;;;;28.70;24.50;;;;;;;7.79;100.00;99038.20;88465;275;22806;-69
2023/10/20 01:48:43;;;;;;;30.30;25.20;;;;;;;7.81;100.00;99036.60;88352;279;137466;-70
2023/10/20 01:50:45;;;;;;;28.30;25.30;;;;;;;7.80;100.00;99040.40;88423;276;25165;-67
2023/10/20 01:52:46;;;;;;;27.20;23.80;;;;;;;7.79;100.00;99037.45;88279;283;137255;-69
2023/10/20 01:54:48;;;;;;;35.00;28.00;;;;;;;7.75;100.00;99024.11;88413;283;22553;-72
2023/10/20 01:56:50;;;;;;;29.50;26.40;;;;;;;7.77;100.00;99024.69;88301;276;138913;-71
2023/10/20 01:58:52;;;;;;;30.40;27.10;;;;;;;7.87;100.00;99038.78;88384;283;22615;-68
2023/10/20 02:00:53;;;;;;;29.70;25.90;;;;;;;7.88;100.00;99040.98;88341;283;137106;-68
2023/10/20 02:02:57;;;;;;;28.30;24.60;;;;;;;7.88;100.00;99034.20;88480;275;23302;-67
2023/10/20 02:04:59;;;;;;;29.60;26.30;;;;;;;7.89;100.00;99030.02;88253;279;139018;-66
2023/10/20 02:07:01;;;;;;;29.60;25.40;;;;;;;7.90;100.00;99025.92;88365;284;22688;-67
2023/10/20 02:09:03;;;;;;;30.40;27.10;;;;;;;7.93;100.00;99028.09;88438;282;136922;-68
2023/10/20 02:11:05;;;;;;;29.70;25.10;;;;;;;7.95;100.00;99028.02;88551;274;23707;-68
2023/10/20 02:13:07;;;;;;;28.40;25.30;;;;;;;7.96;100.00;99024.66;88457;282;137176;-69
2023/10/20 02:15:09;;;;;;;32.80;26.10;;;;;;;7.98;100.00;99027.92;88477;274;24058;-70
2023/10/20 02:17:11;;;;;;;29.80;24.80;;;;;;;8.00;100.00;99027.11;88504;275;137088;-71
2023/10/20 02:19:15;;;;;;;32.60;25.40;;;;;;;8.02;100.00;99026.17;88450;284;22709;-69
2023/10/20 02:21:17;;;;;;;31.20;25.70;;;;;;;8.04;100.00;99027.08;88294;283;137110;-69
2023/10/20 02:23:21;;;;;;;27.50;23.90;;;;;;;8.03;100.00;99024.79;88335;276;22527;-69
2023/10/20 02:25:23;;;;;;;32.40;24.80;;;;;;;8.04;100.00;99025.77;88242;284;137027;-68
2023/10/20 02:27:28;;;;;;;31.30;24.90;;;;;;;8.04;100.00;99024.29;88231;276;25711;-68
2023/10/20 02:29:33;;;;;;;28.80;24.70;;;;;;;8.06;100.00;99015.45;89243;282;138190;-71
2023/10/20 02:31:35;;;;;;;30.00;26.20;;;;;;;8.07;100.00;99011.07;88354;280;22890;-68
2023/10/20 02:33:36;;;;;;;30.00;26.60;;;;;;;8.09;100.00;99005.64;88302;282;136993;-69
2023/10/20 02:35:41;;;;;;;32.00;26.20;;;;;;;8.10;100.00;99004.28;88547;279;22711;-69
2023/10/20 02:37:43;;;;;;;30.00;25.50;;;;;;;8.09;100.00;99006.13;88231;275;138377;-68
2023/10/20 02:39:46;;;;;;;27.70;24.40;;;;;;;8.09;100.00;99004.20;88376;283;22540;-68
2023/10/20 02:41:48;;;;;;;25.60;22.80;;;;;;;8.10;100.00;98998.77;88371;282;139971;-69
2023/10/20 02:43:50;;;;;;;27.60;24.60;;;;;;;8.10;100.00;98996.05;88398;283;24017;-75
2023/10/20 02:45:54;;;;;;;26.90;24.10;;;;;;;8.09;100.00;98998.15;88254;279;137268;-69
2023/10/20 02:48:36;;;;;;;27.70;24.30;;;;;;;8.01;100.00;98996.98;86821;305;603751;-70
2023/10/20 02:50:41;;;;;;;32.60;25.60;;;;;;;8.02;100.00;99000.21;87887;287;22572;-70
2023/10/20 02:52:44;;;;;;;30.40;26.10;;;;;;;8.08;100.00;98992.61;87887;288;136482;-69
2023/10/20 02:54:47;;;;;;;27.30;24.40;;;;;;;8.09;100.00;98991.34;87848;296;25207;-69
2023/10/20 02:56:49;;;;;;;26.70;23.50;;;;;;;8.11;100.00;98987.02;87649;287;137839;-67
2023/10/20 02:58:52;;;;;;;27.40;24.50;;;;;;;8.09;100.00;98984.45;87861;293;22633;-69
2023/10/20 03:00:54;;;;;;;27.90;24.80;;;;;;;8.10;100.00;98989.67;87821;286;140265;-68
2023/10/20 03:02:56;;;;;;;29.50;25.40;;;;;;;8.13;100.00;98990.00;87448;289;808247;-70
2023/10/20 03:04:58;;;;;;;30.40;24.70;;;;;;;8.16;100.00;98988.65;87949;288;136666;-65
2023/10/20 03:07:00;;;;;;;29.60;26.30;;;;;;;8.18;100.00;98983.34;88020;291;25090;-69
2023/10/20 03:09:03;;;;;;;28.10;24.80;;;;;;;8.21;100.00;98983.21;87897;290;136947;-69
2023/10/20 03:11:07;;;;;;;29.30;26.10;;;;;;;8.22;100.00;98976.06;88099;285;23877;-68
2023/10/20 03:13:10;;;;;;;32.20;25.50;;;;;;;8.23;100.00;98974.52;88018;285;138480;-69
2023/10/20 03:15:12;;;;;;;27.50;24.30;;;;;;;8.21;100.00;98973.77;87973;286;24030;-69
2023/10/20 03:17:14;;;;;;;28.70;25.30;;;;;;;8.19;100.00;98973.69;87861;284;136495;-68
2023/10/20 03:19:19;;;;;;;30.20;24.80;;;;;;;8.17;100.00;98972.81;87857;290;25264;-70
2023/10/20 03:21:24;;;;;;;30.00;24.60;;;;;;;8.17;100.00;98971.23;87994;284;136855;-69
2023/10/20 03:23:27;;;;;;;29.40;24.50;;;;;;;8.20;100.00;98962.05;88186;291;24059;-68
2023/10/20 03:25:33;;;;;;;30.10;24.50;;;;;;;8.22;100.00;98959.68;87887;293;136390;-68
2023/10/20 03:27:35;;;;;;;25.30;21.70;;;;;;;8.23;100.00;98956.83;88051;288;22546;-69
2023/10/20 03:29:37;;;;;;;25.50;22.60;;;;;;;8.26;100.00;98955.60;87876;289;137191;-70
2023/10/20 03:31:39;;;;;;;26.30;23.00;;;;;;;8.25;100.00;98952.54;87959;283;22565;-67
2023/10/20 03:33:40;;;;;;;25.20;22.50;;;;;;;8.24;100.00;98948.95;87930;290;136866;-71
2023/10/20 03:35:42;;;;;;;27.40;22.80;;;;;;;8.23;100.00;98948.58;88452;290;25265;-67
2023/10/20 03:37:44;;;;;;;26.70;22.80;;;;;;;8.25;100.00;98948.10;88407;290;136746;-71
2023/10/20 03:39:46;;;;;;;25.90;23.10;;;;;;;8.25;100.00;98944.23;88264;290;22530;-72
2023/10/20 03:41:49;;;;;;;24.90;22.10;;;;;;;8.26;100.00;98945.11;87960;290;136911;-71
2023/10/20 03:43:51;;;;;;;24.80;21.60;;;;;;;8.27;100.00;98949.43;88020;289;27171;-69
2023/10/20 03:45:56;;;;;;;25.00;22.40;;;;;;;8.28;100.00;98947.92;87926;290;138070;-70
2023/10/20 03:48:01;;;;;;;24.90;22.10;;;;;;;8.30;100.00;98953.27;88134;282;22627;-72
2023/10/20 03:50:13;;;;;;;27.10;23.50;;;;;;;8.33;100.00;98947.02;88144;288;24044;-71
2023/10/20 03:52:16;;;;;;;26.40;22.20;;;;;;;8.35;100.00;98951.70;88338;284;137103;-72
2023/10/20 03:54:18;;;;;;;25.50;22.80;;;;;;;8.36;100.00;98954.20;88330;287;23836;-70
2023/10/20 03:56:23;;;;;;;24.70;21.90;;;;;;;8.38;100.00;98949.20;88282;285;137016;-70
2023/10/20 03:58:30;;;;;;;25.50;22.80;;;;;;;8.39;100.00;98951.98;88197;279;25122;-69
2023/10/20 04:00:35;;;;;;;;;;;;;;;8.44;100.00;98944.40;88141;282;138080;-69
2023/10/20 04:02:37;;;;;;;22.20;20.00;;;;;;;8.39;100.00;98936.77;88096;276;23505;-68
2023/10/20 04:04:39;;;;;;;24.90;22.20;;;;;;;8.47;100.00;98945.54;88403;283;136696;-68
2023/10/20 04:06:41;;;;;;;24.20;21.60;;;;;;;8.49;100.00;98945.65;88266;281;22540;-69
2023/10/20 04:08:43;;;;;;;24.10;21.20;;;;;;;8.48;100.00;98944.96;88070;277;137966;-69
2023/10/20 04:10:45;;;;;;;25.30;22.00;;;;;;;8.50;100.00;98943.73;88228;278;22541;-67
2023/10/20 04:12:47;;;;;;;24.80;22.30;;;;;;;8.52;100.00;98943.61;88166;278;137252;-67
2023/10/20 04:14:53;;;;;;;24.60;21.90;;;;;;;8.55;100.00;98938.64;88421;276;22545;-66
2023/10/20 04:16:55;;;;;;;24.60;22.00;;;;;;;8.57;100.00;98942.48;88179;276;136908;-67
2023/10/20 04:18:58;;;;;;;25.00;20.80;;;;;;;8.63;100.00;98940.38;88428;284;22553;-69
2023/10/20 04:21:00;;;;;;;23.80;21.30;;;;;;;8.66;100.00;98943.67;88426;278;138085;-72
2023/10/20 04:23:02;;;;;;;24.70;21.80;;;;;;;8.57;100.00;98933.33;88090;281;22561;-69
2023/10/20 04:25:04;;;;;;;23.90;21.40;;;;;;;8.68;100.00;98945.30;88108;275;138009;-69
2023/10/20 04:27:21;;;;;;;26.50;23.70;;;;;;;8.67;100.00;98945.60;88701;283;23756;-69
2023/10/20 04:29:23;;;;;;;25.60;22.90;;;;;;;8.70;100.00;98949.51;88334;276;137289;-70
2023/10/20 04:54:07;;;;;;;27.20;23.80;;;;;;;8.82;100.00;98950.52;88229;276;137739;-71
2023/10/20 04:56:35;;;;;;;26.60;23.20;;;;;;;8.81;100.00;98949.09;88117;279;138431;-69
2023/10/20 04:58:55;;;;;;;25.70;23.10;;;;;;;8.76;100.00;98957.13;88482;279;26386;-72
2023/10/20 05:01:07;;;;;;;25.20;22.10;;;;;;;8.75;100.00;98947.89;88228;275;136730;-70
2023/10/20 05:03:30;;;;;;;25.70;22.00;;;;;;;8.74;100.00;98943.04;88331;281;22550;-72
2023/10/20 05:07:58;;;;;;;22.60;20.20;;;;;;;8.65;100.00;98917.19;88298;275;24037;-70
2023/10/20 05:10:00;;;;;;;25.80;21.60;;;;;;;8.78;100.00;98932.92;88276;275;136538;-70
2023/10/20 05:12:02;;;;;;;23.10;20.60;;;;;;;8.77;100.00;98926.50;88236;280;23813;-69
2023/10/20 05:14:04;;;;;;;23.50;20.90;;;;;;;8.78;100.00;98926.26;88260;275;25329;-71
2023/10/20 05:16:07;;;;;;;25.50;21.30;;;;;;;8.79;100.00;98925.45;88183;276;136602;-71
2023/10/20 05:18:12;;;;;;;25.40;22.20;;;;;;;8.80;100.00;98919.38;88358;282;22544;-70
2023/10/20 05:20:20;;;;;;;23.60;21.10;;;;;;;8.81;100.00;98919.42;88325;275;136870;-68
2023/10/20 05:22:22;;;;;;;27.40;22.30;;;;;;;8.83;100.00;98916.30;88282;276;22542;-73
2023/10/20 05:24:23;;;;;;;24.30;21.70;;;;;;;8.84;100.00;98912.70;88174;275;136622;-73
2023/10/20 05:26:25;;;;;;;25.90;23.10;;;;;;;8.84;100.00;98905.64;88196;284;22560;-74
2023/10/20 05:28:27;;;;;;;24.00;21.40;;;;;;;8.84;100.00;98901.39;88222;279;136755;-73
2023/10/20 05:30:28;;;;;;;23.70;21.20;;;;;;;8.84;100.00;98895.65;88237;275;23758;-75
2023/10/20 05:32:31;;;;;;;24.80;21.50;;;;;;;8.84;100.00;98897.24;88152;279;136900;-72
2023/10/20 05:34:34;;;;;;;25.10;21.80;;;;;;;8.84;100.00;98892.79;88431;283;22540;-77
2023/10/20 05:36:36;;;;;;;26.00;22.70;;;;;;;8.85;100.00;98890.17;88348;275;137041;-75
2023/10/20 05:38:38;;;;;;;27.00;24.10;;;;;;;8.86;100.00;98888.25;89821;283;22549;-73
2023/10/20 05:40:40;;;;;;;27.20;23.90;;;;;;;8.91;100.00;98883.35;88653;272;136980;-67
2023/10/20 05:42:42;;;;;;;24.50;21.90;;;;;;;8.92;100.00;98873.77;88396;277;25194;-67
2023/10/20 05:45:02;;;;;;;26.00;21.70;;;;;;;8.95;100.00;98876.27;88379;273;136877;-67
2023/10/20 05:47:05;;;;;;;25.00;22.40;;;;;;;8.97;100.00;98892.39;88458;273;24312;-62
2023/10/20 05:49:08;;;;;;;26.00;22.10;;;;;;;8.99;100.00;98896.96;88296;273;136771;-65
2023/10/20 05:51:12;;;;;;;24.50;21.80;;;;;;;8.99;100.00;98893.94;88481;273;25210;-65
2023/10/20 05:53:14;;;;;;;26.20;23.20;;;;;;;9.01;100.00;98895.27;88431;280;137011;-68
2023/10/20 05:55:16;;;;;;;24.90;22.10;;;;;;;9.05;100.00;98896.08;88697;280;22530;-71
2023/10/20 05:57:18;;;;;;;24.90;22.20;;;;;;;9.10;100.00;98892.32;88985;272;136698;-67
2023/10/20 05:59:20;;;;;;;27.20;23.90;;;;;;;9.14;100.00;98889.64;89212;273;22544;-67
2023/10/20 06:01:23;;;;;;;25.30;22.60;;;;;;;9.11;100.00;98876.74;88909;272;137941;-70
2023/10/20 06:03:24;;;;;;;26.90;23.30;;;;;;;9.21;100.00;98877.98;88387;280;22540;-68
2023/10/20 06:05:28;;;;;;;30.70;25.30;;;;;;;9.25;100.00;98872.75;88284;272;136864;-65
2023/10/20 06:07:33;;;;;;;35.80;26.10;;;;;;;9.30;100.00;98863.27;88589;272;22534;-70
2023/10/20 06:09:34;;;;;;;32.50;26.80;;;;;;;9.33;100.00;98859.35;88736;273;137004;-69
2023/10/20 06:11:38;;;;;;;30.40;25.90;;;;;;;9.37;100.00;98858.67;88535;273;23461;-70
2023/10/20 06:13:40;;;;;;;35.30;27.20;;;;;;;9.40;100.00;98863.19;88502;273;136737;-71
2023/10/20 06:15:41;;;;;;;31.70;28.30;;;;;;;9.43;100.00;98866.73;88486;273;25168;-70
2023/10/20 06:17:44;;;;;;;36.00;30.10;;;;;;;9.44;100.00;98865.88;88407;272;137196;-66
2023/10/20 06:19:46;;;;;;;34.20;29.60;;;;;;;9.45;100.00;98864.63;88584;276;22542;-73
2023/10/20 06:21:48;;;;;;;32.10;28.30;;;;;;;9.50;100.00;98866.80;88309;272;136614;-66
2023/10/20 06:23:50;;;;;;;35.00;29.10;;;;;;;9.56;100.00;98866.34;88438;273;22599;-66
2023/10/20 06:25:52;;;;;;;36.10;29.00;;;;;;;9.60;100.00;98861.14;88381;273;137214;-67
2023/10/20 06:27:55;;;;;;;37.30;29.80;;;;;;;9.65;100.00;98863.48;88486;272;22542;-67
2023/10/20 06:30:05;;;;;;;34.20;28.60;;;;;;;9.68;100.00;98862.63;88289;274;136651;-64
2023/10/20 06:32:23;;;;;;;42.70;30.00;;;;;;;9.73;100.00;98859.06;88378;280;137243;-69
2023/10/20 06:34:25;;;;;;;37.20;28.90;;;;;;;9.76;100.00;98858.87;88425;273;22546;-65
2023/10/20 06:36:27;;;;;;;35.40;31.10;;;;;;;9.78;100.00;98864.06;88320;276;138031;-64
2023/10/20 06:38:44;;;;;;;36.90;30.20;;;;;;;9.80;100.00;98860.77;88741;277;24038;-64
2023/10/20 06:40:47;;;;;;;39.00;30.00;;;;;;;9.83;100.00;98858.52;88452;273;136833;-65
2023/10/20 06:42:49;;;;;;;33.60;27.70;;;;;;;9.85;100.00;98859.61;88464;276;25213;-66
2023/10/20 06:44:51;;;;;;;36.20;30.70;;;;;;;9.86;100.00;98860.95;88380;280;136979;-65
2023/10/20 06:46:53;;;;;;;35.50;28.00;;;;;;;9.87;100.00;98854.09;88582;277;25223;-67
2023/10/20 06:48:55;;;;;;;34.60;30.40;;;;;;;9.88;100.00;98859.63;88313;277;137501;-65
2023/10/20 06:50:57;;;;;;;34.80;29.80;;;;;;;9.94;100.00;98861.37;88570;276;26164;-67
2023/10/20 06:53:00;;;;;;;39.40;29.60;;;;;;;10.01;100.00;98857.77;88380;280;137157;-63
2023/10/20 06:55:05;;;;;;;38.60;30.50;;;;;;;10.06;100.00;98857.14;88511;272;25167;-69
2023/10/20 06:57:10;;;;;;;34.40;28.50;;;;;;;10.13;100.00;98853.55;88471;272;137380;-66
2023/10/20 06:59:15;;;;;;;39.40;30.20;;;;;;;10.18;100.00;98854.81;88493;273;22603;-69
2023/10/20 07:01:18;;;;;;;32.00;28.10;;;;;;;10.20;100.00;98854.13;88358;273;138197;-66
2023/10/20 07:03:20;;;;;;;39.80;30.20;;;;;;;10.23;100.00;98850.48;89828;273;25079;-70
2023/10/20 07:05:23;;;;;;;39.80;30.80;;;;;;;10.26;100.00;98852.13;88338;280;137524;-64
2023/10/20 07:07:26;;;;;;;32.90;29.10;;;;;;;10.29;100.00;98850.70;88546;272;25137;-66
2023/10/20 07:09:29;;;;;;;33.50;28.10;;;;;;;10.23;100.00;98831.95;88371;278;137362;-66
2023/10/20 07:11:32;;;;;;;33.10;27.00;;;;;;;10.37;100.00;98843.98;88496;280;22527;-66
2023/10/20 07:13:34;;;;;;;30.10;25.90;;;;;;;10.43;100.00;98843.20;88431;274;136935;-68
2023/10/20 07:15:36;;;;;;;33.10;27.80;;;;;;;10.43;100.00;98834.55;88386;280;25631;-67
2023/10/20 07:17:38;;;;;;;31.90;27.10;;;;;;;10.50;100.00;98829.21;88401;276;137559;-61
2023/10/20 07:19:39;;;;;;;30.40;25.20;;;;;;;10.66;100.00;98838.35;88531;273;22537;-65
2023/10/20 07:21:41;;;;;;;31.40;27.60;;;;;;;10.76;100.00;98837.84;88312;277;137548;-65
2023/10/20 07:23:43;;;;;;;33.00;25.30;;;;;;;10.85;100.00;98841.71;88461;273;22547;-65
2023/10/20 07:25:45;;;;;;;29.80;24.60;;;;;;;10.92;100.00;98848.08;88392;273;138877;-66
2023/10/20 07:27:47;;;;;;;28.50;22.90;;;;;;;10.98;100.00;98848.46;88526;273;25111;-66
2023/10/20 07:29:49;;;;;;;26.20;21.50;;;;;;;11.04;100.00;98845.86;88376;276;137134;-65
2023/10/20 07:31:51;;;;;;;25.50;22.00;;;;;;;11.10;100.00;98851.68;88539;276;23280;-66
2023/10/20 07:33:53;;;;;;;26.80;22.00;;;;;;;11.15;100.00;98850.83;88310;280;137140;-65
2023/10/20 07:35:55;;;;;;;24.50;21.90;;;;;;;11.19;100.00;98851.47;88861;273;22537;-67
2023/10/20 07:37:57;;;;;;;26.90;21.40;;;;;;;11.21;100.00;98850.04;88857;281;138192;-70
2023/10/20 07:39:59;;;;;;;26.10;20.50;;;;;;;11.23;100.00;98848.17;88622;279;22533;-63
2023/10/20 07:42:01;;;;;;;25.00;19.80;;;;;;;11.24;100.00;98848.45;88379;282;137184;-66
2023/10/20 07:44:03;;;;;;;20.20;14.90;;;;;;;11.24;100.00;98847.65;88374;279;137491;-64
2023/10/20 07:46:05;;;;;;;18.40;15.30;;;;;;;11.25;100.00;98848.58;88433;280;23319;-66
2023/10/20 07:48:08;;;;;;;20.20;15.30;;;;;;;11.27;100.00;98846.41;88429;273;137608;-73
2023/10/20 07:50:10;;;;;;;15.10;13.50;;;;;;;11.32;100.00;98852.02;88624;280;22532;-65
2023/10/20 07:52:12;;;;;;;15.00;12.40;;;;;;;11.34;100.00;98855.38;88447;280;138699;-64
2023/10/20 07:54:15;;;;;;;13.80;12.30;;;;;;;11.38;100.00;98858.88;88558;273;22530;-66
2023/10/20 07:56:17;;;;;;;16.50;13.30;;;;;;;11.41;100.00;98861.51;88457;274;138696;-65
2023/10/20 07:58:19;;;;;;;14.20;12.40;;;;;;;11.46;100.00;98864.62;88502;273;22547;-67
2023/10/20 08:00:21;;;;;;;12.70;10.70;;;;;;;11.47;100.00;98867.27;88334;273;138216;-70
2023/10/20 08:02:23;;;;;;;12.80;11.40;;;;;;;11.47;100.00;98868.30;88360;273;25194;-67
2023/10/20 08:04:26;;;;;;;13.60;11.50;;;;;;;11.48;100.00;98869.23;88432;273;137365;-67
2023/10/20 08:06:29;;;;;;;15.80;12.10;;;;;;;11.50;100.00;98865.05;88607;280;22576;-68
2023/10/20 08:08:31;;;;;;;14.70;11.90;;;;;;;11.53;100.00;98864.52;88481;273;138811;-72
2023/10/20 08:10:33;;;;;;;16.90;10.70;;;;;;;11.55;100.00;98865.69;88546;274;22598;-63
2023/10/20 08:12:35;;;;;;;12.60;10.70;;;;;;;11.55;100.00;98861.05;88725;273;137553;-65
2023/10/20 08:14:36;;;;;;;11.50;10.30;;;;;;;11.55;100.00;98856.61;88665;273;22557;-65
2023/10/20 08:16:38;;;;;;;14.90;11.10;;;;;;;11.53;100.00;98859.50;88513;272;137505;-65
2023/10/20 08:18:40;;;;;;;12.10;10.90;;;;;;;11.51;100.00;98857.42;88426;277;25121;-66
2023/10/20 08:20:43;;;;;;;13.30;11.00;;;;;;;11.49;100.00;98861.13;88339;272;137362;-68
2023/10/20 08:22:45;;;;;;;12.90;11.40;;;;;;;11.50;100.00;98856.14;88587;273;25093;-64
2023/10/20 08:24:47;;;;;;;12.50;11.20;;;;;;;11.48;100.00;98850.27;88542;273;137364;-64
2023/10/20 08:26:48;;;;;;;13.30;10.90;;;;;;;11.47;100.00;98849.92;88608;272;25083;-66
2023/10/20 08:28:51;;;;;;;17.70;11.70;;;;;;;11.45;100.00;98850.40;88374;273;138536;-66
2023/10/20 08:31:12;;;;;;;12.50;11.30;;;;;;;11.43;100.00;98846.78;88518;279;24053;-67
2023/10/20 08:33:14;;;;;;;12.40;11.20;;;;;;;11.41;100.00;98843.80;88365;277;137195;-67
2023/10/20 08:35:16;;;;;;;13.10;11.10;;;;;;;11.40;100.00;98841.33;88486;273;22548;-66
2023/10/20 08:37:18;;;;;;;15.20;11.20;;;;;;;11.38;100.00;98837.34;88313;276;137208;-66
2023/10/20 08:39:24;;;;;;;11.70;10.30;;;;;;;11.38;100.00;98837.86;88605;277;23756;-66
2023/10/20 08:41:26;;;;;;;13.60;10.70;;;;;;;11.38;100.00;98833.21;88351;272;138639;-67
2023/10/20 08:43:28;;;;;;;13.40;10.30;;;;;;;11.37;100.00;98834.36;88452;273;25121;-66
2023/10/20 08:45:33;;;;;;;11.70;9.80;;;;;;;11.37;100.00;98836.56;88322;274;136881;-72
2023/10/20 08:47:36;;;;;;;10.90;9.90;;;;;;;11.37;100.00;98839.44;88595;272;22714;-68
2023/10/20 08:49:39;;;;;;;11.10;9.90;;;;;;;11.38;100.00;98836.85;88328;280;137423;-71
2023/10/20 08:51:42;;;;;;;11.30;9.90;;;;;;;11.40;100.00;98841.69;88636;273;22773;-71
2023/10/20 08:53:57;;;;;;;12.50;9.80;;;;;;;11.40;100.00;98845.27;88391;272;137175;-66
2023/10/20 08:55:59;;;;;;;11.30;10.20;;;;;;;11.39;100.00;98857.30;88675;277;22544;-66
2023/10/20 08:58:01;;;;;;;12.20;10.40;;;;;;;11.38;100.00;98869.13;88572;280;137110;-66
2023/10/20 09:00:06;;;;;;;20.80;10.80;;;;;;;11.38;100.00;98869.89;88334;273;137102;-65
2023/10/20 09:02:09;;;;;;;12.10;10.90;;;;;;;11.38;100.00;98866.77;88549;272;25165;-66
2023/10/20 09:04:21;;;;;;;12.80;11.40;;;;;;;11.40;100.00;98870.34;88463;276;137506;-66
2023/10/20 09:06:26;;;;;;;14.70;11.80;;;;;;;11.40;100.00;98869.23;88642;273;25053;-68
2023/10/20 09:08:28;;;;;;;11.80;10.60;;;;;;;11.41;100.00;98870.36;88402;280;137602;-65
2023/10/20 09:10:30;;;;;;;11.70;10.70;;;;;;;11.41;100.00;98869.51;88487;281;22539;-68
2023/10/20 09:12:34;;;;;;;13.90;10.90;;;;;;;11.42;100.00;98865.92;88425;273;137354;-68
2023/10/20 09:14:39;;;;;;;14.10;11.60;;;;;;;11.44;100.00;98865.48;88502;276;25103;-67
2023/10/20 09:16:42;;;;;;;12.30;10.70;;;;;;;11.46;100.00;98869.54;88419;273;139230;-67
2023/10/20 09:18:52;;;;;;;11.90;10.70;;;;;;;11.49;100.00;98875.79;88644;272;23715;-67
2023/10/20 09:21:04;;;;;;;13.50;11.20;;;;;;;11.51;100.00;98869.97;88377;276;137217;-69
2023/10/20 09:23:12;;;;;;;12.20;11.00;;;;;;;11.50;100.00;98865.38;88408;273;23759;-69
2023/10/20 09:25:14;;;;;;;11.60;10.40;;;;;;;11.51;100.00;98861.01;88428;273;137825;-63
2023/10/20 09:27:16;;;;;;;14.40;11.00;;;;;;;11.53;100.00;98860.82;88434;273;22536;-67
2023/10/20 09:29:21;;;;;;;13.80;12.10;;;;;;;11.53;100.00;98855.12;88336;273;138795;-65
2023/10/20 09:31:24;;;;;;;12.00;10.20;;;;;;;11.60;100.00;98858.54;88480;273;22557;-66
2023/10/20 09:33:26;;;;;;;11.70;10.30;;;;;;;11.62;100.00;98858.48;88437;273;138617;-66
2023/10/20 09:35:30;;;;;;;13.70;10.80;;;;;;;11.64;100.00;98860.56;88595;280;22529;-65
2023/10/20 09:37:38;;;;;;;12.80;10.50;;;;;;;11.65;100.00;98863.54;88624;272;137302;-66
2023/10/20 09:39:43;;;;;;;14.50;11.50;;;;;;;11.66;100.00;98865.70;88467;281;24194;-68
2023/10/20 09:41:50;;;;;;;12.70;11.30;;;;;;;11.67;100.00;98865.50;88393;278;137226;-70
2023/10/20 09:44:05;;;;;;;13.40;11.00;;;;;;;11.69;100.00;98865.02;88483;280;22556;-66
2023/10/20 09:46:31;;;;;;;12.10;10.10;;;;;;;11.70;100.00;98859.44;88564;279;25213;-69
2023/10/20 09:48:35;;;;;;;11.50;10.40;;;;;;;11.70;100.00;98860.13;88465;279;138808;-67
2023/10/20 09:50:38;;;;;;;16.30;11.10;;;;;;;11.71;100.00;98863.61;88575;276;22520;-68
2023/10/20 09:52:41;;;;;;;11.90;10.70;;;;;;;11.71;100.00;98863.88;88500;277;137355;-67
2023/10/20 09:54:46;;;;;;;14.10;11.20;;;;;;;11.73;100.00;98862.86;88583;280;22649;-67